createdAt,value
2022-08-20T00:01:06.027Z,99.60
2022-08-20T00:03:39.508Z,99.90
2022-08-20T00:06:22.813Z,99.90
2022-08-20T00:08:50.923Z,99.90
2022-08-20T00:11:21.940Z,99.90
2022-08-20T00:13:52.848Z,99.90
2022-08-20T00:16:22.755Z,99.90
2022-08-20T00:18:49.873Z,99.90
2022-08-20T00:21:19.364Z,99.90
2022-08-20T00:23:49.609Z,99.90
2022-08-20T00:26:16.828Z,99.90
2022-08-20T00:28:43.691Z,99.90
2022-08-20T00:31:13.516Z,99.90
2022-08-20T00:33:40.546Z,99.90
2022-08-20T00:36:10.732Z,99.90
2022-08-20T00:38:39.155Z,99.90
2022-08-20T00:41:07.913Z,99.90
2022-08-20T00:43:39.361Z,99.90
2022-08-20T00:46:07.924Z,99.90
2022-08-20T00:48:37.465Z,99.90
2022-08-20T00:51:12.388Z,99.90
2022-08-20T00:53:39.796Z,99.90
2022-08-20T00:56:08.239Z,99.90
2022-08-20T00:58:37.298Z,99.90
2022-08-20T01:01:06.462Z,99.90
2022-08-20T01:03:34.044Z,99.90
2022-08-20T01:06:01.107Z,99.90
2022-08-20T01:08:28.117Z,99.90
2022-08-20T01:11:10.308Z,99.90
2022-08-20T01:13:38.798Z,99.90
2022-08-20T01:16:14.550Z,99.90
2022-08-20T01:18:45.062Z,99.90
2022-08-20T01:21:11.862Z,99.90
2022-08-20T01:24:06.574Z,99.90
2022-08-20T01:26:39.399Z,99.90
2022-08-20T01:29:23.543Z,99.90
2022-08-20T01:31:50.768Z,99.90
2022-08-20T01:34:19.801Z,99.90
2022-08-20T01:36:49.729Z,99.90
2022-08-20T01:39:24.779Z,99.90
2022-08-20T01:42:15.739Z,99.90
2022-08-20T01:44:44.650Z,99.90
2022-08-20T01:47:21.080Z,99.90
2022-08-20T01:49:55.905Z,99.90
2022-08-20T01:52:30.999Z,99.90
2022-08-20T01:54:57.907Z,99.90
2022-08-20T01:57:29.409Z,99.90
2022-08-20T01:59:56.217Z,99.90
2022-08-20T02:02:24.336Z,99.90
2022-08-20T02:04:51.139Z,99.90
2022-08-20T02:07:21.956Z,99.90
2022-08-20T02:09:50.196Z,99.90
2022-08-20T02:12:17.493Z,99.90
2022-08-20T02:14:48.069Z,99.90
2022-08-20T02:17:15.449Z,99.90
2022-08-20T02:19:50.668Z,99.90
2022-08-20T02:22:49.286Z,99.90
2022-08-20T02:25:18.718Z,99.90
2022-08-20T02:27:47.610Z,99.90
2022-08-20T02:30:36.799Z,99.90
2022-08-20T02:33:06.093Z,99.90
2022-08-20T02:35:34.387Z,99.90
2022-08-20T02:38:01.635Z,99.90
2022-08-20T02:40:30.472Z,99.90
2022-08-20T02:43:00.081Z,99.90
2022-08-20T02:45:27.276Z,99.90
2022-08-20T02:47:55.629Z,99.90
2022-08-20T02:50:23.926Z,99.90
2022-08-20T02:52:51.942Z,99.90
2022-08-20T02:55:26.901Z,99.90
2022-08-20T02:57:59.979Z,99.90
2022-08-20T03:00:28.858Z,99.90
2022-08-20T03:02:59.315Z,99.90
2022-08-20T03:05:26.807Z,99.90
2022-08-20T03:07:55.453Z,99.90
2022-08-20T03:10:25.404Z,99.90
2022-08-20T03:12:52.772Z,99.90
2022-08-20T03:15:19.538Z,99.90
2022-08-20T03:17:47.030Z,99.90
2022-08-20T03:20:14.611Z,99.90
2022-08-20T03:22:41.346Z,99.90
2022-08-20T03:25:08.638Z,99.90
2022-08-20T03:27:36.555Z,99.90
2022-08-20T03:30:07.622Z,99.90
2022-08-20T03:32:34.758Z,99.90
2022-08-20T03:35:01.912Z,99.90
2022-08-20T03:37:35.007Z,99.90
2022-08-20T03:40:03.791Z,99.90
2022-08-20T03:42:31.380Z,99.90
2022-08-20T03:44:59.101Z,99.90
2022-08-20T03:47:26.466Z,99.90
2022-08-20T03:49:57.870Z,99.90
2022-08-20T03:52:24.542Z,99.90
2022-08-20T03:54:51.379Z,99.90
2022-08-20T03:57:18.551Z,99.90
2022-08-20T03:59:45.331Z,99.90
2022-08-20T04:02:12.397Z,99.90
2022-08-20T04:04:40.728Z,99.90
2022-08-20T04:07:13.164Z,99.90
2022-08-20T04:09:40.103Z,99.90
2022-08-20T04:12:08.483Z,99.90
2022-08-20T04:14:36.290Z,99.90
2022-08-20T04:17:08.674Z,99.90
2022-08-20T04:19:36.662Z,99.90
2022-08-20T04:22:03.855Z,99.90
2022-08-20T04:24:33.997Z,99.90
2022-08-20T04:27:02.809Z,99.90
2022-08-20T04:29:31.993Z,99.90
2022-08-20T04:32:00.579Z,99.90
2022-08-20T04:34:29.749Z,99.90
2022-08-20T04:36:56.586Z,99.90
2022-08-20T04:39:23.641Z,99.90
2022-08-20T04:41:50.375Z,99.90
2022-08-20T04:44:17.136Z,99.90
2022-08-20T04:46:44.081Z,99.90
2022-08-20T04:49:11.138Z,99.90
2022-08-20T04:51:37.899Z,99.90
2022-08-20T04:54:04.912Z,99.90
2022-08-20T04:56:38.634Z,99.90
2022-08-20T04:59:07.274Z,99.90
2022-08-20T05:01:35.076Z,99.90
2022-08-20T05:04:02.194Z,99.90
2022-08-20T05:06:31.905Z,99.90
2022-08-20T05:09:00.129Z,99.90
2022-08-20T05:11:33.033Z,99.90
2022-08-20T05:14:02.349Z,99.90
2022-08-20T05:16:29.542Z,99.90
2022-08-20T05:18:56.289Z,99.90
2022-08-20T05:21:23.045Z,99.90
2022-08-20T05:23:49.867Z,99.90
2022-08-20T05:26:20.228Z,99.90
2022-08-20T05:28:58.162Z,99.90
2022-08-20T05:31:31.629Z,99.90
2022-08-20T05:34:09.321Z,99.90
2022-08-20T05:36:42.273Z,99.90
2022-08-20T05:39:10.213Z,99.90
2022-08-20T05:41:38.400Z,99.90
2022-08-20T05:44:09.763Z,99.90
2022-08-20T05:46:40.798Z,99.90
2022-08-20T05:49:09.540Z,99.90
2022-08-20T05:51:36.999Z,99.90
2022-08-20T05:54:04.850Z,99.90
2022-08-20T05:56:32.374Z,99.90
2022-08-20T05:59:06.606Z,99.90
2022-08-20T06:01:36.070Z,99.90
2022-08-20T06:04:24.897Z,99.90
2022-08-20T06:06:54.160Z,99.90
2022-08-20T06:09:30.767Z,99.90
2022-08-20T06:11:59.486Z,99.90
2022-08-20T06:14:26.607Z,99.90
2022-08-20T06:16:57.772Z,99.90
2022-08-20T06:19:27.127Z,99.90
2022-08-20T06:21:59.692Z,99.90
2022-08-20T06:24:26.990Z,99.90
2022-08-20T06:27:02.049Z,99.90
2022-08-20T06:29:29.651Z,99.90
2022-08-20T06:31:57.049Z,99.90
2022-08-20T06:34:28.108Z,99.90
2022-08-20T06:36:55.885Z,99.90
2022-08-20T06:39:24.221Z,99.90
2022-08-20T06:41:51.793Z,99.90
2022-08-20T06:44:19.944Z,99.90
2022-08-20T06:46:46.846Z,99.90
2022-08-20T06:49:13.664Z,99.90
2022-08-20T06:51:41.390Z,99.90
2022-08-20T06:54:08.576Z,99.90
2022-08-20T06:56:35.626Z,99.90
2022-08-20T06:59:02.383Z,99.90
2022-08-20T07:01:29.515Z,99.90
2022-08-20T07:03:59.689Z,99.90
2022-08-20T07:06:27.086Z,99.90
2022-08-20T07:08:55.252Z,99.90
2022-08-20T07:11:27.296Z,99.90
2022-08-20T07:13:56.726Z,99.90
2022-08-20T07:16:24.784Z,99.90
2022-08-20T07:18:51.545Z,99.90
2022-08-20T07:21:18.352Z,99.90
2022-08-20T07:23:45.321Z,99.90
2022-08-20T07:26:13.219Z,99.90
2022-08-20T07:28:40.121Z,99.90
2022-08-20T07:31:25.722Z,99.90
2022-08-20T07:33:53.903Z,99.90
2022-08-20T07:36:20.701Z,99.90
2022-08-20T07:38:48.804Z,99.90
2022-08-20T07:41:15.600Z,99.90
2022-08-20T07:43:45.448Z,99.90
2022-08-20T07:46:14.823Z,99.90
2022-08-20T07:48:46.195Z,99.90
2022-08-20T07:51:14.963Z,99.90
2022-08-20T07:53:41.965Z,99.90
2022-08-20T07:56:13.055Z,99.90
2022-08-20T07:58:49.760Z,99.90
2022-08-20T08:01:18.857Z,99.90
2022-08-20T08:03:50.161Z,99.90
2022-08-20T08:06:29.895Z,99.90
2022-08-20T08:09:01.824Z,99.90
2022-08-20T08:11:29.696Z,99.90
2022-08-20T08:13:56.502Z,99.90
2022-08-20T08:16:23.344Z,99.90
2022-08-20T08:18:56.531Z,99.90
2022-08-20T08:21:23.809Z,99.90
2022-08-20T08:23:50.573Z,99.90
2022-08-20T08:26:19.135Z,99.90
2022-08-20T08:28:46.645Z,99.90
2022-08-20T08:31:13.994Z,99.90
2022-08-20T08:33:41.764Z,99.90
2022-08-20T08:36:14.109Z,99.90
2022-08-20T08:38:44.109Z,99.90
2022-08-20T08:41:50.028Z,99.90
2022-08-20T08:44:23.443Z,99.90
2022-08-20T08:46:57.332Z,99.90
2022-08-20T08:49:37.481Z,99.90
2022-08-20T08:52:07.214Z,99.90
2022-08-20T08:54:35.381Z,99.90
2022-08-20T08:57:02.791Z,99.90
2022-08-20T08:59:56.232Z,99.90
2022-08-20T09:02:25.957Z,99.90
2022-08-20T09:04:55.907Z,99.90
2022-08-20T09:07:26.121Z,99.90
2022-08-20T09:09:53.271Z,99.90
2022-08-20T09:12:22.837Z,99.90
2022-08-20T09:14:51.377Z,99.90
2022-08-20T09:17:21.852Z,99.90
2022-08-20T09:19:50.107Z,99.90
2022-08-20T09:22:20.794Z,99.90
2022-08-20T09:24:49.221Z,99.90
2022-08-20T09:27:16.099Z,99.90
2022-08-20T09:29:42.953Z,99.90
2022-08-20T09:32:17.486Z,99.90
2022-08-20T09:34:47.717Z,99.90
2022-08-20T09:37:15.715Z,99.90
2022-08-20T09:39:43.464Z,99.90
2022-08-20T09:42:11.516Z,99.90
2022-08-20T09:44:39.359Z,99.90
2022-08-20T09:47:06.360Z,99.90
2022-08-20T09:49:33.742Z,99.90
2022-08-20T09:52:01.733Z,99.90
2022-08-20T09:54:30.133Z,99.90
2022-08-20T09:56:59.304Z,99.90
2022-08-20T09:59:26.679Z,99.90
2022-08-20T10:01:53.449Z,99.90
2022-08-20T10:04:20.235Z,99.90
2022-08-20T10:06:47.443Z,99.90
2022-08-20T10:09:14.187Z,99.90
2022-08-20T10:11:41.830Z,99.90
2022-08-20T10:14:11.400Z,99.90
2022-08-20T10:16:38.229Z,99.90
2022-08-20T10:19:05.706Z,99.90
2022-08-20T10:21:38.476Z,99.90
2022-08-20T10:24:05.893Z,99.90
2022-08-20T10:26:32.678Z,99.90
2022-08-20T10:28:59.446Z,99.90
2022-08-20T10:31:26.265Z,99.90
2022-08-20T10:33:53.053Z,99.90
2022-08-20T10:36:20.090Z,99.90
2022-08-20T10:38:48.500Z,99.90
2022-08-20T10:41:15.552Z,99.90
2022-08-20T10:43:42.249Z,99.90
2022-08-20T10:46:09.251Z,99.90
2022-08-20T10:48:36.057Z,99.90
2022-08-20T10:51:03.004Z,99.90
2022-08-20T10:53:29.877Z,99.90
2022-08-20T10:55:57.906Z,99.90
2022-08-20T10:58:25.267Z,99.90
2022-08-20T11:00:52.360Z,99.90
2022-08-20T11:03:19.853Z,99.90
2022-08-20T11:05:47.908Z,99.90
2022-08-20T11:08:15.150Z,99.90
2022-08-20T11:11:00.262Z,99.90
2022-08-20T11:13:27.051Z,99.90
2022-08-20T11:15:53.781Z,99.90
2022-08-20T11:18:20.534Z,99.80
2022-08-20T11:20:47.251Z,99.70
2022-08-20T11:23:14.038Z,99.60
2022-08-20T11:25:40.827Z,98.80
2022-08-20T11:28:07.826Z,98.30
2022-08-20T11:30:36.223Z,97.90
2022-08-20T11:33:03.993Z,98.30
2022-08-20T11:35:50.093Z,98.00
2022-08-20T11:38:18.329Z,97.70
2022-08-20T11:40:46.910Z,97.50
2022-08-20T11:43:15.883Z,97.60
2022-08-20T11:45:49.689Z,97.00
2022-08-20T11:48:17.944Z,96.80
2022-08-20T11:50:45.482Z,96.60
2022-08-20T11:53:12.366Z,96.40
2022-08-20T11:55:39.691Z,96.00
2022-08-20T11:58:07.232Z,96.50
2022-08-20T12:00:36.786Z,95.10
2022-08-20T12:03:08.654Z,93.80
2022-08-20T12:05:37.617Z,93.90
2022-08-20T12:08:04.882Z,93.50
2022-08-20T12:10:32.736Z,93.20
2022-08-20T12:12:59.849Z,93.50
2022-08-20T12:15:28.859Z,93.50
2022-08-20T12:17:55.878Z,93.50
2022-08-20T12:20:24.608Z,93.50
2022-08-20T12:22:53.038Z,94.20
2022-08-20T12:25:20.548Z,93.60
2022-08-20T12:27:47.494Z,93.30
2022-08-20T12:30:21.887Z,92.90
2022-08-20T12:32:49.011Z,92.30
2022-08-20T12:35:18.160Z,91.80
2022-08-20T12:37:46.108Z,91.10
2022-08-20T12:40:33.283Z,91.90
2022-08-20T12:43:02.383Z,91.50
2022-08-20T12:45:30.110Z,91.10
2022-08-20T12:48:03.208Z,91.20
2022-08-20T12:50:31.795Z,91.10
2022-08-20T12:52:59.308Z,91.70
2022-08-20T12:55:26.801Z,92.10
2022-08-20T12:57:57.081Z,91.50
2022-08-20T13:00:27.531Z,88.70
2022-08-20T13:02:56.447Z,84.70
2022-08-20T13:05:23.831Z,85.90
2022-08-20T13:07:52.420Z,84.60
2022-08-20T13:10:26.040Z,83.80
2022-08-20T13:12:53.067Z,84.40
2022-08-20T13:15:21.550Z,85.40
2022-08-20T13:17:56.934Z,83.90
2022-08-20T13:20:34.267Z,81.20
2022-08-20T13:23:02.733Z,81.00
2022-08-20T13:25:29.693Z,80.30
2022-08-20T13:27:59.313Z,79.30
2022-08-20T13:30:27.140Z,80.00
2022-08-20T13:32:54.459Z,81.00
2022-08-20T13:35:21.677Z,81.40
2022-08-20T13:37:50.050Z,80.30
2022-08-20T13:40:17.549Z,78.00
2022-08-20T13:42:44.553Z,76.40
2022-08-20T13:45:11.921Z,77.60
2022-08-20T13:47:40.446Z,78.70
2022-08-20T13:50:17.562Z,77.70
2022-08-20T13:52:44.695Z,76.80
2022-08-20T13:55:16.059Z,75.30
2022-08-20T13:57:43.808Z,74.80
2022-08-20T14:00:15.381Z,76.20
2022-08-20T14:02:43.056Z,76.50
2022-08-20T14:05:10.415Z,75.20
2022-08-20T14:07:37.774Z,74.30
2022-08-20T14:10:11.161Z,74.60
2022-08-20T14:12:38.513Z,73.90
2022-08-20T14:15:06.265Z,73.30
2022-08-20T14:17:35.614Z,73.40
2022-08-20T14:20:08.578Z,72.60
2022-08-20T14:22:36.826Z,70.70
2022-08-20T14:25:05.372Z,70.50
2022-08-20T14:27:33.949Z,71.40
2022-08-20T14:30:02.225Z,71.20
2022-08-20T14:32:30.147Z,70.50
2022-08-20T14:34:59.265Z,70.80
2022-08-20T14:37:34.703Z,66.30
2022-08-20T14:40:04.473Z,64.90
2022-08-20T14:42:31.388Z,64.40
2022-08-20T14:44:59.448Z,64.30
2022-08-20T14:47:31.882Z,65.40
2022-08-20T14:50:04.798Z,65.50
2022-08-20T14:52:33.840Z,64.80
2022-08-20T14:55:00.627Z,65.20
2022-08-20T14:57:27.678Z,64.60
2022-08-20T14:59:54.681Z,64.00
2022-08-20T15:02:22.309Z,64.10
2022-08-20T15:04:54.001Z,63.20
2022-08-20T15:07:27.327Z,62.00
2022-08-20T15:09:55.137Z,61.50
2022-08-20T15:12:23.143Z,60.80
2022-08-20T15:14:50.691Z,62.10
2022-08-20T15:17:24.802Z,61.20
2022-08-20T15:19:52.384Z,60.90
2022-08-20T15:22:20.823Z,59.50
2022-08-20T15:24:48.306Z,59.20
2022-08-20T15:27:23.265Z,55.50
2022-08-20T15:29:51.452Z,54.40
2022-08-20T15:32:19.990Z,52.00
2022-08-20T15:34:47.584Z,50.90
2022-08-20T15:37:18.767Z,49.90
2022-08-20T15:39:46.083Z,50.20
2022-08-20T15:42:14.075Z,49.60
2022-08-20T15:44:42.374Z,49.60
2022-08-20T15:47:11.953Z,47.70
2022-08-20T15:49:38.776Z,46.60
2022-08-20T15:52:05.889Z,47.20
2022-08-20T15:54:32.759Z,47.70
2022-08-20T15:57:47.021Z,46.50
2022-08-20T16:00:24.166Z,46.20
2022-08-20T16:03:25.238Z,47.90
2022-08-20T16:06:07.049Z,47.10
2022-08-20T16:08:54.637Z,48.00
2022-08-20T16:11:21.750Z,47.80
2022-08-20T16:13:55.166Z,47.90
2022-08-20T16:17:01.311Z,48.20
2022-08-20T16:19:36.157Z,48.60
2022-08-20T16:22:04.681Z,47.90
2022-08-20T16:24:32.416Z,48.70
2022-08-20T16:27:19.956Z,48.20
2022-08-20T16:30:09.571Z,48.00
2022-08-20T16:32:51.692Z,47.90
2022-08-20T16:35:30.704Z,48.70
2022-08-20T16:38:21.149Z,48.10
2022-08-20T16:41:18.228Z,48.60
2022-08-20T16:44:01.206Z,48.90
2022-08-20T16:46:36.104Z,49.40
2022-08-20T16:49:13.437Z,49.80
2022-08-20T16:51:48.196Z,49.20
2022-08-20T16:54:28.241Z,50.40
2022-08-20T16:57:03.486Z,50.90
2022-08-20T16:59:31.057Z,51.30
2022-08-20T17:02:10.375Z,51.70
2022-08-20T17:04:58.557Z,51.70
2022-08-20T17:07:43.501Z,52.70
2022-08-20T17:10:36.034Z,53.40
2022-08-20T17:13:28.219Z,53.00
2022-08-20T17:16:04.603Z,53.50
2022-08-20T17:18:37.246Z,53.80
2022-08-20T17:21:12.487Z,54.40
2022-08-20T17:23:55.642Z,53.60
2022-08-20T17:26:41.324Z,53.80
2022-08-20T17:29:30.049Z,54.80
2022-08-20T17:32:09.614Z,55.80
2022-08-20T17:34:51.469Z,55.60
2022-08-20T17:37:28.063Z,56.30
2022-08-20T17:40:06.246Z,56.70
2022-08-20T17:42:33.248Z,56.80
2022-08-20T17:45:14.075Z,57.90
2022-08-20T17:47:42.295Z,57.90
2022-08-20T17:50:26.643Z,57.80
2022-08-20T17:52:58.359Z,58.30
2022-08-20T17:55:26.415Z,58.90
2022-08-20T17:57:57.792Z,58.80
2022-08-20T18:00:28.414Z,59.30
2022-08-20T18:03:08.281Z,59.50
2022-08-20T18:05:36.956Z,60.20
2022-08-20T18:08:30.574Z,60.60
2022-08-20T18:11:12.629Z,61.10
2022-08-20T18:13:57.572Z,60.90
2022-08-20T18:16:44.171Z,61.20
2022-08-20T18:19:21.953Z,61.90
2022-08-20T18:22:09.938Z,62.30
2022-08-20T18:24:57.418Z,62.60
2022-08-20T18:27:28.169Z,63.00
2022-08-20T18:29:59.185Z,63.70
2022-08-20T18:32:36.482Z,63.80
2022-08-20T18:35:32.696Z,64.20
2022-08-20T18:38:23.051Z,64.70
2022-08-20T18:40:54.613Z,65.30
2022-08-20T18:43:30.469Z,66.10
2022-08-20T18:46:22.780Z,65.90
2022-08-20T18:48:57.445Z,66.40
2022-08-20T18:51:30.914Z,66.60
2022-08-20T18:53:57.932Z,66.90
2022-08-20T18:56:35.802Z,67.50
2022-08-20T18:59:29.642Z,68.40
2022-08-20T19:01:56.594Z,68.40
2022-08-20T19:04:32.575Z,68.70
2022-08-20T19:07:03.695Z,68.60
2022-08-20T19:09:33.548Z,70.00
2022-08-20T19:12:11.090Z,69.30
2022-08-20T19:14:54.557Z,70.10
2022-08-20T19:17:42.892Z,69.40
2022-08-20T19:20:37.653Z,70.80
2022-08-20T19:23:14.789Z,70.40
2022-08-20T19:26:05.754Z,70.50
2022-08-20T19:28:55.592Z,71.10
2022-08-20T19:31:26.034Z,71.20
2022-08-20T19:34:20.088Z,71.70
2022-08-20T19:37:27.372Z,72.10
2022-08-20T19:39:51.510Z,72.40
2022-08-20T19:42:27.085Z,72.60
2022-08-20T19:44:59.726Z,72.80
2022-08-20T19:47:32.859Z,73.30
2022-08-20T19:50:28.550Z,73.40
2022-08-20T19:53:30.227Z,73.70
2022-08-20T19:56:17.904Z,73.80
2022-08-20T19:58:45.819Z,74.00
2022-08-20T20:01:20.869Z,74.10
2022-08-20T20:04:00.182Z,74.00
2022-08-20T20:06:28.357Z,74.90
2022-08-20T20:08:59.603Z,75.10
2022-08-20T20:11:32.761Z,75.20
2022-08-20T20:14:06.283Z,76.10
2022-08-20T20:16:34.291Z,76.30
2022-08-20T20:19:25.318Z,76.90
2022-08-20T20:22:03.027Z,77.20
2022-08-20T20:24:39.615Z,78.00
2022-08-20T20:27:13.571Z,78.20
2022-08-20T20:29:42.019Z,78.50
2022-08-20T20:32:21.599Z,79.20
2022-08-20T20:34:56.871Z,80.80
2022-08-20T20:37:49.218Z,79.60
2022-08-20T20:40:56.576Z,80.50
2022-08-20T20:43:35.678Z,80.80
2022-08-20T20:46:14.393Z,82.00
2022-08-20T20:48:50.018Z,83.20
2022-08-20T20:51:23.245Z,82.80
2022-08-20T20:53:54.692Z,83.40
2022-08-20T20:56:57.342Z,84.10
2022-08-20T20:59:24.618Z,84.40
2022-08-20T21:01:51.577Z,85.10
2022-08-20T21:04:20.569Z,86.10
2022-08-20T21:06:47.929Z,85.90
2022-08-20T21:09:15.204Z,86.50
2022-08-20T21:11:43.137Z,87.20
2022-08-20T21:14:10.103Z,88.40
2022-08-20T21:16:37.057Z,90.00
2022-08-20T21:19:08.180Z,90.00
2022-08-20T21:21:36.054Z,90.00
2022-08-20T21:24:03.370Z,90.00
2022-08-20T21:26:30.419Z,90.70
2022-08-20T21:28:57.422Z,90.90
2022-08-20T21:31:30.267Z,91.00
2022-08-20T21:33:57.114Z,92.00
2022-08-20T21:36:23.959Z,92.80
2022-08-20T21:38:51.365Z,93.30
2022-08-20T21:41:18.937Z,93.90
2022-08-20T21:43:56.748Z,94.40
2022-08-20T21:46:25.040Z,94.80
2022-08-20T21:48:52.006Z,95.40
2022-08-20T21:51:18.799Z,95.60
2022-08-20T21:53:45.877Z,95.20
2022-08-20T21:56:12.827Z,95.60
2022-08-20T21:58:40.139Z,96.10
2022-08-20T22:01:07.927Z,96.50
2022-08-20T22:03:38.932Z,96.70
2022-08-20T22:06:11.755Z,97.70
2022-08-20T22:08:38.633Z,97.80
2022-08-20T22:11:07.854Z,97.80
2022-08-20T22:13:34.894Z,97.80
2022-08-20T22:16:04.577Z,97.70
2022-08-20T22:18:32.253Z,97.60
2022-08-20T22:20:59.718Z,97.30
2022-08-20T22:23:26.768Z,96.90
2022-08-20T22:25:53.604Z,98.60
2022-08-20T22:28:20.609Z,98.90
2022-08-20T22:30:47.471Z,98.70
2022-08-20T22:33:19.910Z,98.30
2022-08-20T22:35:49.759Z,98.90
2022-08-20T22:38:17.022Z,99.70
2022-08-20T22:40:44.488Z,99.90
2022-08-20T22:43:11.831Z,99.90
2022-08-20T22:45:40.239Z,99.90
2022-08-20T22:48:08.162Z,99.90
2022-08-20T22:50:38.047Z,99.90
2022-08-20T22:53:06.976Z,99.90
2022-08-20T22:55:34.533Z,99.90
2022-08-20T22:58:02.884Z,99.90
2022-08-20T23:00:32.649Z,99.90
2022-08-20T23:03:01.315Z,99.90
2022-08-20T23:05:31.536Z,99.90
2022-08-20T23:08:00.083Z,99.90
2022-08-20T23:10:28.765Z,99.90
2022-08-20T23:12:57.197Z,99.90
2022-08-20T23:15:26.364Z,99.90
2022-08-20T23:17:58.486Z,99.90
2022-08-20T23:20:25.246Z,99.90
2022-08-20T23:22:52.036Z,99.90
2022-08-20T23:25:21.653Z,99.90
2022-08-20T23:27:50.950Z,99.90
2022-08-20T23:30:20.014Z,99.90
2022-08-20T23:32:46.880Z,99.90
2022-08-20T23:35:14.650Z,99.90
2022-08-20T23:37:48.314Z,99.90
2022-08-20T23:40:16.392Z,99.90
2022-08-20T23:42:43.279Z,99.90
2022-08-20T23:45:10.366Z,99.90
2022-08-20T23:47:37.528Z,99.90
2022-08-20T23:50:06.359Z,99.90
2022-08-20T23:52:33.279Z,99.90
2022-08-20T23:55:00.021Z,99.90
2022-08-20T23:57:26.800Z,99.90
2022-08-20T23:59:53.731Z,99.90
